Terminal Aerodrome Forecast
Issued by NWS

Home | Current Version | Previous Version | Text Only | Print | Product List | Glossary On
Versions: 1 2 3 4 5 6 7 8 9 10 11 12 13 14 15 16 17 18 19 20 21 22
000
FTUS43 KICT 312328
TAFCNU
TAF
KCNU 312328Z 0100/0124 VRB04KT P6SM BKN100
     FM010300 VRB04KT P6SM SCT250
     FM011200 02005KT P6SM BKN250
     FM011800 05010KT P6SM BKN250=

USA.gov is the U.S. government's official web portal to all federal, state and local government web resources and services.